createdAt,value
2023-02-18T00:00:23.620Z,6.34
2023-02-18T00:02:52.560Z,6.31
2023-02-18T00:05:19.585Z,6.33
2023-02-18T00:07:46.073Z,6.39
2023-02-18T00:10:14.901Z,6.47
2023-02-18T00:12:41.928Z,6.43
2023-02-18T00:15:09.596Z,6.37
2023-02-18T00:17:36.268Z,6.40
2023-02-18T00:20:02.808Z,6.34
2023-02-18T00:22:29.249Z,6.32
2023-02-18T00:24:55.649Z,6.21
2023-02-18T00:27:22.068Z,6.23
2023-02-18T00:29:48.448Z,6.16
2023-02-18T00:32:14.953Z,6.17
2023-02-18T00:34:41.388Z,5.92
2023-02-18T00:37:07.799Z,5.75
2023-02-18T00:39:34.223Z,5.69
2023-02-18T00:42:00.641Z,5.70
2023-02-18T00:44:27.155Z,5.71
2023-02-18T00:46:53.609Z,5.76
2023-02-18T00:49:20.024Z,5.81
2023-02-18T00:51:46.461Z,5.74
2023-02-18T00:54:12.939Z,5.71
2023-02-18T00:56:39.366Z,5.64
2023-02-18T00:59:05.829Z,5.71
2023-02-18T01:01:32.606Z,5.66
2023-02-18T01:03:59.160Z,5.55
2023-02-18T01:06:25.727Z,5.54
2023-02-18T01:08:52.123Z,5.50
2023-02-18T01:11:18.653Z,5.36
2023-02-18T01:13:45.118Z,5.39
2023-02-18T01:16:11.834Z,5.36
2023-02-18T01:18:39.286Z,5.18
2023-02-18T01:21:08.605Z,5.07
2023-02-18T01:23:36.149Z,4.97
2023-02-18T01:26:02.688Z,4.90
2023-02-18T01:28:29.198Z,4.93
2023-02-18T01:30:55.747Z,5.02
2023-02-18T01:33:22.588Z,4.97
2023-02-18T01:35:49.727Z,4.99
2023-02-18T01:38:16.241Z,4.92
2023-02-18T01:40:51.448Z,4.85
2023-02-18T01:43:20.242Z,4.82
2023-02-18T01:46:10.351Z,4.74
2023-02-18T01:48:45.582Z,4.75
2023-02-18T01:51:23.636Z,4.91
2023-02-18T01:54:01.764Z,4.96
2023-02-18T01:56:35.825Z,4.91
2023-02-18T01:59:07.892Z,5.08
2023-02-18T02:01:35.261Z,4.97
2023-02-18T02:04:01.936Z,4.79
2023-02-18T02:06:28.486Z,4.63
2023-02-18T02:08:59.476Z,4.66
2023-02-18T02:12:10.446Z,4.76
2023-02-18T02:14:54.990Z,4.60
2023-02-18T02:17:36.651Z,4.63
2023-02-18T02:20:15.223Z,4.72
2023-02-18T02:23:28.296Z,4.88
2023-02-18T02:26:22.457Z,4.84
2023-02-18T02:29:16.705Z,4.80
2023-02-18T02:32:01.501Z,4.52
2023-02-18T02:35:06.929Z,4.36
2023-02-18T02:38:12.413Z,4.18
2023-02-18T02:40:50.949Z,4.19
2023-02-18T02:43:49.401Z,4.36
2023-02-18T02:46:26.569Z,4.37
2023-02-18T02:49:22.810Z,4.50
2023-02-18T02:52:11.908Z,4.56
2023-02-18T02:54:38.401Z,4.42
2023-02-18T02:57:25.042Z,4.11
2023-02-18T02:59:57.034Z,3.86
2023-02-18T03:03:00.825Z,3.74
2023-02-18T03:05:39.003Z,3.80
2023-02-18T03:08:39.182Z,4.03
2023-02-18T03:11:14.296Z,4.10
2023-02-18T03:14:05.306Z,4.10
2023-02-18T03:16:42.245Z,4.11
2023-02-18T03:19:22.922Z,4.02
2023-02-18T03:21:58.639Z,4.00
2023-02-18T03:24:42.867Z,4.00
2023-02-18T03:27:29.328Z,4.07
2023-02-18T03:30:05.097Z,4.10
2023-02-18T03:32:34.230Z,4.12
2023-02-18T03:35:06.096Z,4.12
2023-02-18T03:37:37.817Z,4.11
2023-02-18T03:40:05.799Z,4.11
2023-02-18T03:42:32.448Z,4.09
2023-02-18T03:44:59.212Z,3.91
2023-02-18T03:47:25.882Z,3.89
2023-02-18T03:49:52.268Z,3.87
2023-02-18T03:52:19.647Z,3.80
2023-02-18T03:54:46.107Z,3.83
2023-02-18T03:57:12.539Z,3.75
2023-02-18T03:59:38.947Z,3.80
2023-02-18T04:02:05.370Z,3.84
2023-02-18T04:04:32.753Z,3.74
2023-02-18T04:06:59.299Z,3.78
2023-02-18T04:09:26.000Z,3.74
2023-02-18T04:11:52.458Z,3.67
2023-02-18T04:14:18.886Z,3.63
2023-02-18T04:16:45.397Z,3.69
2023-02-18T04:19:11.896Z,3.70
2023-02-18T04:21:38.364Z,3.63
2023-02-18T04:24:04.993Z,3.52
2023-02-18T04:26:31.425Z,3.58
2023-02-18T04:28:57.978Z,3.58
2023-02-18T04:31:24.560Z,3.63
2023-02-18T04:33:51.576Z,3.65
2023-02-18T04:36:18.002Z,3.53
2023-02-18T04:38:44.464Z,3.45
2023-02-18T04:41:12.690Z,3.41
2023-02-18T04:43:39.273Z,3.32
2023-02-18T04:46:05.866Z,3.32
2023-02-18T04:48:32.530Z,3.33
2023-02-18T04:50:58.940Z,3.38
2023-02-18T04:53:25.433Z,3.32
2023-02-18T04:55:52.912Z,3.35
2023-02-18T04:58:20.073Z,3.42
2023-02-18T05:00:46.778Z,3.53
2023-02-18T05:03:14.087Z,3.49
2023-02-18T05:05:41.802Z,3.55
2023-02-18T05:08:08.780Z,3.58
2023-02-18T05:10:35.293Z,3.43
2023-02-18T05:13:01.735Z,3.44
2023-02-18T05:15:28.186Z,3.33
2023-02-18T05:17:54.629Z,3.26
2023-02-18T05:20:21.058Z,3.26
2023-02-18T05:22:47.484Z,3.24
2023-02-18T05:25:13.901Z,3.37
2023-02-18T05:27:40.327Z,3.46
2023-02-18T05:30:07.832Z,3.45
2023-02-18T05:32:34.392Z,3.41
2023-02-18T05:35:00.793Z,3.40
2023-02-18T05:37:27.192Z,3.41
2023-02-18T05:39:53.626Z,3.42
2023-02-18T05:42:20.674Z,3.38
2023-02-18T05:44:47.211Z,3.27
2023-02-18T05:47:13.681Z,3.18
2023-02-18T05:49:41.892Z,3.09
2023-02-18T05:52:09.884Z,2.94
2023-02-18T05:54:37.686Z,2.91
2023-02-18T05:57:04.875Z,2.88
2023-02-18T05:59:31.343Z,2.86
2023-02-18T06:01:57.935Z,2.95
2023-02-18T06:04:24.837Z,2.88
2023-02-18T06:06:51.560Z,2.79
2023-02-18T06:09:18.006Z,2.86
2023-02-18T06:11:44.426Z,2.85
2023-02-18T06:14:10.876Z,2.85
2023-02-18T06:16:37.691Z,2.87
2023-02-18T06:19:04.211Z,2.76
2023-02-18T06:21:30.809Z,2.68
2023-02-18T06:23:57.288Z,2.71
2023-02-18T06:26:24.089Z,2.64
2023-02-18T06:28:50.538Z,2.60
2023-02-18T06:31:17.036Z,2.73
2023-02-18T06:33:43.526Z,2.79
2023-02-18T06:36:12.371Z,2.79
2023-02-18T06:38:43.869Z,2.90
2023-02-18T06:41:11.498Z,2.97
2023-02-18T06:43:38.485Z,3.02
2023-02-18T06:46:05.602Z,3.00
2023-02-18T06:48:32.791Z,3.04
2023-02-18T06:51:25.098Z,3.01
2023-02-18T06:56:32.373Z,3.09
2023-02-18T06:58:58.836Z,3.21
2023-02-18T07:01:25.244Z,3.29
2023-02-18T07:03:51.697Z,3.36
2023-02-18T07:06:18.183Z,3.37
2023-02-18T07:08:44.671Z,3.18
2023-02-18T07:11:11.159Z,2.96
2023-02-18T07:13:37.569Z,3.01
2023-02-18T07:16:04.349Z,3.14
2023-02-18T07:18:30.798Z,3.13
2023-02-18T07:20:57.208Z,3.22
2023-02-18T07:23:23.645Z,3.14
2023-02-18T07:25:50.056Z,3.29
2023-02-18T07:28:16.503Z,3.37
2023-02-18T07:30:43.039Z,3.51
2023-02-18T07:33:10.995Z,3.60
2023-02-18T07:35:37.493Z,3.63
2023-02-18T07:38:04.050Z,3.67
2023-02-18T07:40:30.503Z,3.90
2023-02-18T07:42:56.920Z,4.11
2023-02-18T07:45:23.420Z,4.33
2023-02-18T07:47:49.827Z,4.53
2023-02-18T07:50:16.335Z,4.77
2023-02-18T07:52:42.777Z,4.84
2023-02-18T07:55:09.257Z,4.76
2023-02-18T07:57:55.852Z,4.82
2023-02-18T08:00:22.391Z,5.14
2023-02-18T08:02:48.816Z,5.33
2023-02-18T08:05:15.256Z,5.22
2023-02-18T08:07:41.810Z,5.20
2023-02-18T08:10:08.466Z,5.27
2023-02-18T08:12:45.262Z,5.34
2023-02-18T08:15:12.021Z,5.37
2023-02-18T08:17:38.420Z,5.63
2023-02-18T08:20:05.971Z,5.79
2023-02-18T08:22:32.435Z,5.86
2023-02-18T08:24:58.949Z,5.93
2023-02-18T08:27:25.458Z,6.05
2023-02-18T08:29:52.212Z,6.17
2023-02-18T08:32:18.661Z,6.28
2023-02-18T08:34:49.259Z,6.44
2023-02-18T08:37:18.670Z,6.57
2023-02-18T08:39:45.117Z,6.60
2023-02-18T08:42:11.543Z,6.73
2023-02-18T08:44:38.155Z,6.81
2023-02-18T08:47:04.684Z,6.94
2023-02-18T08:49:53.267Z,7.04
2023-02-18T08:52:20.170Z,7.09
2023-02-18T08:54:46.897Z,7.09
2023-02-18T08:57:13.754Z,7.19
2023-02-18T08:59:40.299Z,7.29
2023-02-18T09:02:06.979Z,7.39
2023-02-18T09:04:33.394Z,7.49
2023-02-18T09:06:59.822Z,7.58
2023-02-18T09:09:26.246Z,7.65
2023-02-18T09:11:52.639Z,7.69
2023-02-18T09:14:19.073Z,7.75
2023-02-18T09:16:45.561Z,7.82
2023-02-18T09:19:12.000Z,7.84
2023-02-18T09:21:38.910Z,7.97
2023-02-18T09:24:05.629Z,8.09
2023-02-18T09:26:33.414Z,8.15
2023-02-18T09:28:59.819Z,8.25
2023-02-18T09:31:27.689Z,8.39
2023-02-18T09:34:02.136Z,8.50
2023-02-18T09:36:29.217Z,8.63
2023-02-18T09:38:55.875Z,8.76
2023-02-18T09:41:32.172Z,8.92
2023-02-18T09:44:07.379Z,9.00
2023-02-18T09:46:40.909Z,9.08
2023-02-18T09:49:16.003Z,9.15
2023-02-18T09:51:43.526Z,9.24
2023-02-18T09:54:14.394Z,9.44
2023-02-18T09:56:42.750Z,9.55
2023-02-18T09:59:16.053Z,9.64
2023-02-18T10:01:50.831Z,9.71
2023-02-18T10:04:23.741Z,9.80
2023-02-18T10:06:57.330Z,9.86
2023-02-18T10:09:34.750Z,10.00
2023-02-18T10:12:19.227Z,10.09
2023-02-18T10:15:03.913Z,10.15
2023-02-18T10:17:33.301Z,10.32
2023-02-18T10:20:01.507Z,10.41
2023-02-18T10:22:30.458Z,10.45
2023-02-18T10:24:59.586Z,10.46
2023-02-18T10:27:29.003Z,10.54
2023-02-18T10:30:24.233Z,10.64
2023-02-18T10:32:57.736Z,10.70
2023-02-18T10:35:34.206Z,10.96
2023-02-18T10:38:24.519Z,10.98
2023-02-18T10:41:02.351Z,11.04
2023-02-18T10:43:34.745Z,11.14
2023-02-18T10:46:13.906Z,11.31
2023-02-18T10:49:09.637Z,11.55
2023-02-18T10:51:40.444Z,11.67
2023-02-18T10:54:07.177Z,11.65
2023-02-18T10:56:40.854Z,11.63
2023-02-18T10:59:25.407Z,11.69
2023-02-18T11:01:58.479Z,11.65
2023-02-18T11:04:46.028Z,11.67
2023-02-18T11:07:13.826Z,11.76
2023-02-18T11:09:53.574Z,11.82
2023-02-18T11:12:30.594Z,11.98
2023-02-18T11:15:05.425Z,11.95
2023-02-18T11:17:34.113Z,12.17
2023-02-18T11:20:04.096Z,12.32
2023-02-18T11:22:41.370Z,12.27
2023-02-18T11:25:26.102Z,12.38
2023-02-18T11:27:56.793Z,12.47
2023-02-18T11:30:39.897Z,12.56
2023-02-18T11:33:16.118Z,12.59
2023-02-18T11:35:50.440Z,12.72
2023-02-18T11:38:41.472Z,12.95
2023-02-18T11:41:12.036Z,12.94
2023-02-18T11:43:42.788Z,12.99
2023-02-18T11:46:11.112Z,12.94
2023-02-18T11:48:37.761Z,12.95
2023-02-18T11:51:07.172Z,13.02
2023-02-18T11:53:36.884Z,13.09
2023-02-18T11:56:16.493Z,13.12
2023-02-18T11:58:48.248Z,13.14
2023-02-18T12:01:20.660Z,13.35
2023-02-18T12:03:51.106Z,13.42
2023-02-18T12:06:30.995Z,13.35
2023-02-18T12:09:17.676Z,13.40
2023-02-18T12:11:49.691Z,13.43
2023-02-18T12:14:19.438Z,13.59
2023-02-18T12:17:02.351Z,13.64
2023-02-18T12:19:34.750Z,13.62
2023-02-18T12:22:20.682Z,13.59
2023-02-18T12:25:01.984Z,13.56
2023-02-18T12:28:10.914Z,13.61
2023-02-18T12:31:06.174Z,13.78
2023-02-18T12:34:16.490Z,13.81
2023-02-18T12:36:55.430Z,13.76
2023-02-18T12:39:57.063Z,13.87
2023-02-18T12:42:37.212Z,13.88
2023-02-18T12:52:37.441Z,14.12
2023-02-18T12:55:27.288Z,14.16
2023-02-18T12:58:35.667Z,14.21
2023-02-18T13:01:15.391Z,14.23
2023-02-18T13:04:06.851Z,14.29
2023-02-18T13:06:56.785Z,14.38
2023-02-18T13:09:51.154Z,14.48
2023-02-18T13:12:36.697Z,14.50
2023-02-18T13:15:34.242Z,14.50
2023-02-18T13:18:24.338Z,14.49
2023-02-18T13:21:05.740Z,14.51
2023-02-18T13:23:37.706Z,14.50
2023-02-18T13:26:30.365Z,14.48
2023-02-18T13:32:27.102Z,14.41
2023-02-18T13:35:33.550Z,14.49
2023-02-18T13:38:47.269Z,14.46
2023-02-18T13:41:14.531Z,14.39
2023-02-18T13:46:25.565Z,14.39
2023-02-18T13:49:17.685Z,14.38
2023-02-18T13:51:50.076Z,14.36
2023-02-18T13:54:26.130Z,14.36
2023-02-18T13:57:01.129Z,14.41
2023-02-18T13:59:41.820Z,14.50
2023-02-18T14:02:21.267Z,14.57
2023-02-18T14:04:55.562Z,14.58
2023-02-18T14:07:40.369Z,14.71
2023-02-18T14:10:12.804Z,14.80
2023-02-18T14:12:41.104Z,14.83
2023-02-18T14:15:19.848Z,14.91
2023-02-18T14:18:14.129Z,14.79
2023-02-18T14:20:45.740Z,14.80
2023-02-18T14:23:18.575Z,14.78
2023-02-18T14:25:59.991Z,14.88
2023-02-18T14:28:38.548Z,14.77
2023-02-18T14:31:32.728Z,14.83
2023-02-18T14:33:59.211Z,14.93
2023-02-18T14:36:34.029Z,14.89
2023-02-18T14:39:56.163Z,14.81
2023-02-18T14:42:50.647Z,14.79
2023-02-18T14:45:32.845Z,14.83
2023-02-18T14:48:02.303Z,14.72
2023-02-18T14:50:35.150Z,14.76
2023-02-18T14:53:07.843Z,14.74
2023-02-18T14:55:43.440Z,14.82
2023-02-18T14:58:28.099Z,14.75
2023-02-18T15:00:54.641Z,14.65
2023-02-18T15:03:22.359Z,14.63
2023-02-18T15:05:51.817Z,14.66
2023-02-18T15:08:26.168Z,14.69
2023-02-18T15:11:01.749Z,14.64
2023-02-18T15:13:34.200Z,14.59
2023-02-18T15:16:05.684Z,14.63
2023-02-18T15:18:38.300Z,14.62
2023-02-18T15:21:07.498Z,14.57
2023-02-18T15:23:39.730Z,14.62
2023-02-18T15:26:10.586Z,14.53
2023-02-18T15:28:43.008Z,14.44
2023-02-18T15:31:15.597Z,14.50
2023-02-18T15:33:47.346Z,14.54
2023-02-18T15:36:15.261Z,14.49
2023-02-18T15:38:42.936Z,14.52
2023-02-18T15:41:13.661Z,14.55
2023-02-18T15:43:51.604Z,14.52
2023-02-18T15:46:18.161Z,14.53
2023-02-18T15:48:49.004Z,14.50
2023-02-18T15:51:22.108Z,14.52
2023-02-18T15:53:53.641Z,14.37
2023-02-18T15:56:40.239Z,14.32
2023-02-18T15:59:16.188Z,14.27
2023-02-18T16:01:42.669Z,14.28
2023-02-18T16:04:13.244Z,14.20
2023-02-18T16:06:46.464Z,14.12
2023-02-18T16:09:19.066Z,14.05
2023-02-18T16:11:49.989Z,13.99
2023-02-18T16:14:28.527Z,13.85
2023-02-18T16:17:15.430Z,13.82
2023-02-18T16:20:05.652Z,13.75
2023-02-18T16:22:33.525Z,13.66
2023-02-18T16:25:07.421Z,13.60
2023-02-18T16:27:37.390Z,13.53
2023-02-18T16:30:31.420Z,13.41
2023-02-18T16:32:58.999Z,13.33
2023-02-18T16:35:30.672Z,13.26
2023-02-18T16:37:59.675Z,13.18
2023-02-18T16:40:40.563Z,13.13
2023-02-18T16:43:10.048Z,13.07
2023-02-18T16:45:49.964Z,13.02
2023-02-18T16:48:28.228Z,12.95
2023-02-18T16:50:54.815Z,12.89
2023-02-18T16:53:21.868Z,12.79
2023-02-18T16:55:50.844Z,12.64
2023-02-18T16:58:17.841Z,12.51
2023-02-18T17:00:46.169Z,12.42
2023-02-18T17:03:13.502Z,12.32
2023-02-18T17:05:41.065Z,12.24
2023-02-18T17:08:26.933Z,12.16
2023-02-18T17:10:56.157Z,12.09
2023-02-18T17:13:25.523Z,12.04
2023-02-18T17:15:54.759Z,11.96
2023-02-18T17:18:21.456Z,11.90
2023-02-18T17:20:48.918Z,11.80
2023-02-18T17:23:16.397Z,11.73
2023-02-18T17:25:43.260Z,11.64
2023-02-18T17:28:09.673Z,11.56
2023-02-18T17:30:39.091Z,11.49
2023-02-18T17:33:06.704Z,11.44
2023-02-18T17:35:33.400Z,11.44
2023-02-18T17:38:00.002Z,11.39
2023-02-18T17:40:28.207Z,11.35
2023-02-18T17:42:55.994Z,11.29
2023-02-18T17:45:32.105Z,11.22
2023-02-18T17:48:00.415Z,11.14
2023-02-18T17:50:28.445Z,11.03
2023-02-18T17:52:57.783Z,10.98
2023-02-18T17:55:25.507Z,10.93
2023-02-18T17:57:53.012Z,10.89
2023-02-18T18:00:34.675Z,10.81
2023-02-18T18:03:01.439Z,10.74
2023-02-18T18:05:36.474Z,10.69
2023-02-18T18:08:04.644Z,10.63
2023-02-18T18:10:34.475Z,10.60
2023-02-18T18:13:04.485Z,10.57
2023-02-18T18:15:34.168Z,10.55
2023-02-18T18:18:00.769Z,10.52
2023-02-18T18:20:30.459Z,10.51
2023-02-18T18:22:58.675Z,10.58
2023-02-18T18:25:29.230Z,10.56
2023-02-18T18:27:56.413Z,10.48
2023-02-18T18:30:28.612Z,10.42
2023-02-18T18:32:55.701Z,10.36
2023-02-18T18:35:26.605Z,10.33
2023-02-18T18:37:53.893Z,10.31
2023-02-18T18:40:22.569Z,10.27
2023-02-18T18:42:49.208Z,10.17
2023-02-18T18:45:19.825Z,10.11
2023-02-18T18:47:46.959Z,10.05
2023-02-18T18:50:13.729Z,9.99
2023-02-18T18:52:43.322Z,9.91
2023-02-18T18:55:33.972Z,9.88
2023-02-18T18:58:01.003Z,9.80
2023-02-18T19:00:34.213Z,9.73
2023-02-18T19:03:03.194Z,9.73
2023-02-18T19:05:37.385Z,9.74
2023-02-18T19:08:05.637Z,9.70
2023-02-18T19:10:35.737Z,9.67
2023-02-18T19:13:06.660Z,9.61
2023-02-18T19:15:33.306Z,9.56
2023-02-18T19:17:59.800Z,9.48
2023-02-18T19:20:29.834Z,9.53
2023-02-18T19:22:56.321Z,9.55
2023-02-18T19:25:23.130Z,9.49
2023-02-18T19:27:52.449Z,9.43
2023-02-18T19:30:28.200Z,9.35
2023-02-18T19:32:57.713Z,9.31
2023-02-18T19:35:25.965Z,9.30
2023-02-18T19:37:52.875Z,9.19
2023-02-18T19:40:24.694Z,9.15
2023-02-18T19:42:51.834Z,9.10
2023-02-18T19:45:19.538Z,9.09
2023-02-18T19:47:46.407Z,9.11
2023-02-18T19:50:15.819Z,9.08
2023-02-18T19:52:42.303Z,9.08
2023-02-18T19:55:09.939Z,9.04
2023-02-18T19:57:36.447Z,8.97
2023-02-18T20:00:05.754Z,8.93
2023-02-18T20:02:32.730Z,8.94
2023-02-18T20:05:01.581Z,8.92
2023-02-18T20:07:29.178Z,8.88
2023-02-18T20:09:55.702Z,8.81
2023-02-18T20:12:22.697Z,8.79
2023-02-18T20:14:50.584Z,8.81
2023-02-18T20:17:17.767Z,8.82
2023-02-18T20:19:44.291Z,8.81
2023-02-18T20:22:10.736Z,8.75
2023-02-18T20:24:39.490Z,8.71
2023-02-18T20:27:07.166Z,8.67
2023-02-18T20:29:34.688Z,8.66
2023-02-18T20:32:01.387Z,8.64
2023-02-18T20:34:28.445Z,8.57
2023-02-18T20:36:54.997Z,8.61
2023-02-18T20:39:22.749Z,8.51
2023-02-18T20:41:50.283Z,8.41
2023-02-18T20:44:18.355Z,8.40
2023-02-18T20:46:45.352Z,8.45
2023-02-18T20:49:14.161Z,8.47
2023-02-18T20:51:41.267Z,8.44
2023-02-18T20:54:09.970Z,8.48
2023-02-18T20:56:37.810Z,8.36
2023-02-18T20:59:05.065Z,8.18
2023-02-18T21:01:32.224Z,8.12
2023-02-18T21:03:58.834Z,8.09
2023-02-18T21:06:27.271Z,8.10
2023-02-18T21:08:54.232Z,8.03
2023-02-18T21:11:23.757Z,7.88
2023-02-18T21:13:52.087Z,7.79
2023-02-18T21:16:21.201Z,7.83
2023-02-18T21:18:47.872Z,7.97
2023-02-18T21:21:14.993Z,8.05
2023-02-18T21:23:41.677Z,8.03
2023-02-18T21:26:09.527Z,7.99
2023-02-18T21:28:36.045Z,7.92
2023-02-18T21:31:03.117Z,7.91
2023-02-18T21:33:29.908Z,7.74
2023-02-18T21:35:56.612Z,7.59
2023-02-18T21:38:23.026Z,7.48
2023-02-18T21:40:49.459Z,7.44
2023-02-18T21:43:15.863Z,7.44
2023-02-18T21:45:42.308Z,7.39
2023-02-18T21:48:27.548Z,7.32
2023-02-18T21:50:54.014Z,7.36
2023-02-18T21:53:22.754Z,7.38
2023-02-18T21:56:02.192Z,7.46
2023-02-18T21:58:30.115Z,7.35
2023-02-18T22:00:58.159Z,7.31
2023-02-18T22:03:24.714Z,7.25
2023-02-18T22:05:51.142Z,7.00
2023-02-18T22:08:17.536Z,6.93
2023-02-18T22:10:43.970Z,7.02
2023-02-18T22:13:10.370Z,7.05
2023-02-18T22:15:36.802Z,6.97
2023-02-18T22:18:03.229Z,6.74
2023-02-18T22:20:29.663Z,6.62
2023-02-18T22:22:56.034Z,6.74
2023-02-18T22:25:23.666Z,6.70
2023-02-18T22:27:50.066Z,6.57
2023-02-18T22:30:18.732Z,6.49
2023-02-18T22:32:45.337Z,6.59
2023-02-18T22:35:11.802Z,6.57
2023-02-18T22:37:38.254Z,6.63
2023-02-18T22:40:05.148Z,6.66
2023-02-18T22:42:31.563Z,6.67
2023-02-18T22:45:02.255Z,6.70
2023-02-18T22:47:28.941Z,6.68
2023-02-18T22:49:55.355Z,6.67
2023-02-18T22:52:21.743Z,6.66
2023-02-18T22:54:48.126Z,6.66
2023-02-18T22:57:14.595Z,6.77
2023-02-18T22:59:41.491Z,6.78
2023-02-18T23:02:08.105Z,6.68
2023-02-18T23:04:34.496Z,6.58
2023-02-18T23:07:00.950Z,6.57
2023-02-18T23:09:27.451Z,6.48
2023-02-18T23:11:56.546Z,6.40
2023-02-18T23:14:23.630Z,6.41
2023-02-18T23:17:14.200Z,6.38
2023-02-18T23:19:49.578Z,6.25
2023-02-18T23:22:19.468Z,6.25
2023-02-18T23:24:46.893Z,6.27
2023-02-18T23:27:15.291Z,6.44
2023-02-18T23:29:42.161Z,6.42
2023-02-18T23:32:09.363Z,6.30
2023-02-18T23:34:36.201Z,6.27
2023-02-18T23:37:02.588Z,6.26
2023-02-18T23:39:29.560Z,6.32
2023-02-18T23:41:56.370Z,6.36
2023-02-18T23:44:23.997Z,6.21
2023-02-18T23:46:51.018Z,6.29
2023-02-18T23:49:20.111Z,6.23
2023-02-18T23:51:46.685Z,6.09
2023-02-18T23:54:13.122Z,5.95
2023-02-18T23:56:40.022Z,5.85
2023-02-18T23:59:06.536Z,5.90
